createdAt,value
2022-12-31T00:01:14.932Z,0.92
2022-12-31T00:03:41.879Z,0.89
2022-12-31T00:06:25.815Z,0.86
2022-12-31T00:08:53.446Z,0.84
2022-12-31T00:11:20.586Z,0.83
2022-12-31T00:13:48.427Z,0.83
2022-12-31T00:16:26.715Z,0.81
2022-12-31T00:18:55.462Z,0.79
2022-12-31T00:21:22.369Z,0.76
2022-12-31T00:23:49.138Z,0.75
2022-12-31T00:26:18.197Z,0.73
2022-12-31T00:28:45.296Z,0.70
2022-12-31T00:31:19.898Z,0.66
2022-12-31T00:33:46.643Z,0.63
2022-12-31T00:36:15.517Z,0.61
2022-12-31T00:38:43.781Z,0.57
2022-12-31T00:41:10.717Z,0.53
2022-12-31T00:43:37.634Z,0.47
2022-12-31T00:46:04.578Z,0.41
2022-12-31T00:48:31.456Z,0.33
2022-12-31T00:50:58.233Z,0.26
2022-12-31T00:53:25.061Z,0.20
2022-12-31T00:55:51.797Z,0.12
2022-12-31T00:58:18.449Z,0.07
2022-12-31T01:00:45.063Z,0.04
2022-12-31T01:03:11.775Z,0.00
2022-12-31T01:05:38.536Z,-0.03
2022-12-31T01:08:05.655Z,-0.06
2022-12-31T01:10:51.074Z,-0.08
2022-12-31T01:13:17.708Z,-0.11
2022-12-31T01:15:44.522Z,-0.14
2022-12-31T01:18:11.294Z,-0.16
2022-12-31T01:20:39.447Z,-0.18
2022-12-31T01:23:06.479Z,-0.21
2022-12-31T01:25:37.664Z,-0.23
2022-12-31T01:28:05.456Z,-0.25
2022-12-31T01:30:32.239Z,-0.28
2022-12-31T01:32:58.907Z,-0.30
2022-12-31T01:35:25.880Z,-0.34
2022-12-31T01:37:52.587Z,-0.38
2022-12-31T01:40:19.222Z,-0.40
2022-12-31T01:42:46.001Z,-0.43
2022-12-31T01:45:13.539Z,-0.44
2022-12-31T01:47:44.254Z,-0.46
2022-12-31T01:50:29.263Z,-0.48
2022-12-31T01:53:03.562Z,-0.49
2022-12-31T01:55:35.548Z,-0.51
2022-12-31T01:58:11.713Z,-0.54
2022-12-31T02:00:38.540Z,-0.56
2022-12-31T02:03:05.606Z,-0.55
2022-12-31T02:05:54.034Z,-0.55
2022-12-31T02:08:21.019Z,-0.56
2022-12-31T02:10:47.656Z,-0.56
2022-12-31T02:13:14.459Z,-0.58
2022-12-31T02:16:01.297Z,-0.60
2022-12-31T02:18:43.782Z,-0.63
2022-12-31T02:21:32.524Z,-0.65
2022-12-31T02:24:17.513Z,-0.67
2022-12-31T02:27:02.445Z,-0.69
2022-12-31T02:29:48.021Z,-0.71
2022-12-31T02:32:21.902Z,-0.72
2022-12-31T02:34:51.157Z,-0.74
2022-12-31T02:37:17.832Z,-0.77
2022-12-31T02:39:44.517Z,-0.79
2022-12-31T02:42:11.629Z,-0.80
2022-12-31T02:44:41.140Z,-0.81
2022-12-31T02:47:07.917Z,-0.82
2022-12-31T02:49:43.607Z,-0.83
2022-12-31T02:52:18.432Z,-0.85
2022-12-31T02:54:51.582Z,-0.86
2022-12-31T02:57:50.853Z,-0.87
2022-12-31T03:00:38.090Z,-0.88
2022-12-31T03:03:04.853Z,-0.89
2022-12-31T03:05:34.798Z,-0.91
2022-12-31T03:08:01.429Z,-0.91
2022-12-31T03:10:28.152Z,-0.92
2022-12-31T03:12:55.126Z,-0.94
2022-12-31T03:15:22.869Z,-0.95
2022-12-31T03:17:53.950Z,-0.96
2022-12-31T03:20:40.345Z,-0.97
2022-12-31T03:23:09.386Z,-0.98
2022-12-31T03:25:36.134Z,-0.98
2022-12-31T03:28:05.019Z,-1.00
2022-12-31T03:30:32.087Z,-0.99
2022-12-31T03:32:59.222Z,-0.99
2022-12-31T03:35:26.912Z,-1.01
2022-12-31T03:37:53.963Z,-1.01
2022-12-31T03:40:21.887Z,-1.03
2022-12-31T03:42:48.613Z,-1.03
2022-12-31T03:45:15.680Z,-1.04
2022-12-31T03:47:42.523Z,-1.06
2022-12-31T03:50:09.887Z,-1.08
2022-12-31T03:52:37.179Z,-1.08
2022-12-31T03:55:04.205Z,-1.09
2022-12-31T03:57:31.071Z,-1.09
2022-12-31T03:59:57.757Z,-1.10
2022-12-31T04:02:28.801Z,-1.12
2022-12-31T04:04:56.259Z,-1.13
2022-12-31T04:07:23.083Z,-1.14
2022-12-31T04:09:49.759Z,-1.16
2022-12-31T04:12:17.100Z,-1.18
2022-12-31T04:14:43.827Z,-1.17
2022-12-31T04:17:10.497Z,-1.17
2022-12-31T04:19:37.729Z,-1.18
2022-12-31T04:22:05.008Z,-1.19
2022-12-31T04:24:31.732Z,-1.19
2022-12-31T04:27:03.601Z,-1.18
2022-12-31T04:29:34.404Z,-1.19
2022-12-31T04:32:01.168Z,-1.20
2022-12-31T04:34:27.913Z,-1.21
2022-12-31T04:36:54.702Z,-1.23
2022-12-31T04:39:21.374Z,-1.24
2022-12-31T04:43:14.555Z,-1.25
2022-12-31T04:45:41.246Z,-1.28
2022-12-31T04:48:07.978Z,-1.28
2022-12-31T04:50:34.639Z,-1.27
2022-12-31T04:53:01.277Z,-1.26
2022-12-31T04:55:28.048Z,-1.27
2022-12-31T04:57:54.685Z,-1.28
2022-12-31T05:00:21.424Z,-1.29
2022-12-31T05:02:48.192Z,-1.31
2022-12-31T05:05:14.954Z,-1.33
2022-12-31T05:07:41.741Z,-1.35
2022-12-31T05:10:08.451Z,-1.36
2022-12-31T05:12:35.118Z,-1.37
2022-12-31T05:15:01.874Z,-1.40
2022-12-31T05:17:28.603Z,-1.41
2022-12-31T05:19:55.347Z,-1.43
2022-12-31T05:22:31.438Z,-1.46
2022-12-31T05:24:58.452Z,-1.48
2022-12-31T05:27:25.205Z,-1.51
2022-12-31T05:29:51.848Z,-1.54
2022-12-31T05:32:18.484Z,-1.57
2022-12-31T05:34:45.168Z,-1.58
2022-12-31T05:37:12.169Z,-1.59
2022-12-31T05:39:38.794Z,-1.59
2022-12-31T05:42:05.472Z,-1.59
2022-12-31T05:44:32.172Z,-1.60
2022-12-31T05:46:58.817Z,-1.61
2022-12-31T05:49:25.578Z,-1.61
2022-12-31T05:51:52.240Z,-1.61
2022-12-31T05:54:19.062Z,-1.59
2022-12-31T05:56:45.795Z,-1.61
2022-12-31T05:59:12.537Z,-1.61
2022-12-31T06:01:39.282Z,-1.61
2022-12-31T06:04:06.149Z,-1.60
2022-12-31T06:06:32.842Z,-1.61
2022-12-31T06:08:59.499Z,-1.60
2022-12-31T06:11:26.123Z,-1.60
2022-12-31T06:13:52.802Z,-1.60
2022-12-31T06:16:19.544Z,-1.59
2022-12-31T06:18:50.790Z,-1.58
2022-12-31T06:21:18.102Z,-1.56
2022-12-31T06:23:44.754Z,-1.54
2022-12-31T06:26:11.489Z,-1.50
2022-12-31T06:28:38.210Z,-1.46
2022-12-31T06:31:06.630Z,-1.42
2022-12-31T06:33:33.522Z,-1.39
2022-12-31T06:36:01.978Z,-1.37
2022-12-31T06:38:29.796Z,-1.33
2022-12-31T06:40:56.584Z,-1.28
2022-12-31T06:43:23.381Z,-1.24
2022-12-31T06:45:50.049Z,-1.20
2022-12-31T06:48:16.855Z,-1.16
2022-12-31T06:50:43.518Z,-1.12
2022-12-31T06:53:11.739Z,-1.05
2022-12-31T06:55:38.872Z,-0.97
2022-12-31T06:58:05.683Z,-0.89
2022-12-31T07:00:32.957Z,-0.82
2022-12-31T07:03:02.795Z,-0.74
2022-12-31T07:05:52.730Z,-0.65
2022-12-31T07:08:46.369Z,-0.52
2022-12-31T07:11:35.312Z,-0.44
2022-12-31T07:14:27.307Z,-0.35
2022-12-31T07:17:09.324Z,-0.25
2022-12-31T07:19:58.139Z,-0.14
2022-12-31T07:22:25.094Z,-0.03
2022-12-31T07:24:52.092Z,0.12
2022-12-31T07:27:34.334Z,0.29
2022-12-31T07:30:04.204Z,0.46
2022-12-31T07:32:49.509Z,0.57
2022-12-31T07:35:51.322Z,0.69
2022-12-31T07:38:27.225Z,0.81
2022-12-31T07:41:23.805Z,0.88
2022-12-31T07:44:01.807Z,0.97
2022-12-31T07:46:40.839Z,1.09
2022-12-31T07:49:12.339Z,1.29
2022-12-31T07:51:39.706Z,1.55
2022-12-31T07:54:11.856Z,1.85
2022-12-31T07:56:40.680Z,2.23
2022-12-31T07:59:26.604Z,2.61
2022-12-31T08:02:04.788Z,2.94
2022-12-31T08:04:37.803Z,3.25
2022-12-31T08:07:32.728Z,3.53
2022-12-31T08:10:23.026Z,3.77
2022-12-31T08:12:50.253Z,3.88
2022-12-31T08:15:18.233Z,3.87
2022-12-31T08:17:45.193Z,3.77
2022-12-31T08:20:16.733Z,3.63
2022-12-31T08:23:05.261Z,3.44
2022-12-31T08:25:40.588Z,3.24
2022-12-31T08:28:19.823Z,3.12
2022-12-31T08:31:02.151Z,3.09
2022-12-31T08:34:10.056Z,3.08
2022-12-31T08:36:48.956Z,3.06
2022-12-31T08:39:41.965Z,3.04
2022-12-31T08:42:37.035Z,3.02
2022-12-31T08:45:37.836Z,3.03
2022-12-31T08:48:36.580Z,3.01
2022-12-31T08:51:03.437Z,3.04
2022-12-31T08:53:30.445Z,3.05
2022-12-31T08:56:02.791Z,3.10
2022-12-31T08:58:48.275Z,3.14
2022-12-31T09:01:15.061Z,3.14
2022-12-31T09:03:53.248Z,3.15
2022-12-31T09:06:25.995Z,3.19
2022-12-31T09:09:02.573Z,3.26
2022-12-31T09:11:53.022Z,3.34
2022-12-31T09:14:57.759Z,3.46
2022-12-31T09:17:31.493Z,3.59
2022-12-31T09:19:58.488Z,3.72
2022-12-31T09:22:25.433Z,3.82
2022-12-31T09:24:52.311Z,3.96
2022-12-31T09:27:27.732Z,4.15
2022-12-31T09:29:57.654Z,4.35
2022-12-31T09:32:41.843Z,4.52
2022-12-31T09:35:24.087Z,4.68
2022-12-31T09:37:53.255Z,4.83
2022-12-31T09:40:29.081Z,4.94
2022-12-31T09:43:02.100Z,5.10
2022-12-31T09:46:07.628Z,5.23
2022-12-31T09:49:06.968Z,5.42
2022-12-31T09:51:38.248Z,5.59
2022-12-31T09:54:27.024Z,5.75
2022-12-31T09:57:20.122Z,5.91
2022-12-31T10:00:03.804Z,6.03
2022-12-31T10:02:48.346Z,6.15
2022-12-31T10:05:33.942Z,6.27
2022-12-31T10:08:06.759Z,6.39
2022-12-31T10:10:39.847Z,6.46
2022-12-31T10:13:28.619Z,6.57
2022-12-31T10:16:20.144Z,6.68
2022-12-31T10:19:17.722Z,6.79
2022-12-31T10:22:03.160Z,6.90
2022-12-31T10:24:51.733Z,7.00
2022-12-31T15:16:54.899Z,3.63
2022-12-31T15:19:40.290Z,3.71
2022-12-31T15:22:14.476Z,3.81
2022-12-31T15:24:45.636Z,3.91
2022-12-31T15:27:34.390Z,4.01
2022-12-31T15:30:01.167Z,4.13
2022-12-31T15:32:34.692Z,4.22
2022-12-31T15:35:20.988Z,4.32
2022-12-31T15:38:10.380Z,4.41
2022-12-31T15:40:44.354Z,4.50
2022-12-31T15:43:20.112Z,4.58
2022-12-31T15:45:48.286Z,4.65
2022-12-31T15:48:22.198Z,4.72
2022-12-31T15:50:49.990Z,4.78
2022-12-31T15:53:40.076Z,4.82
2022-12-31T15:56:08.117Z,4.85
2022-12-31T15:58:36.056Z,4.88
2022-12-31T16:01:19.074Z,4.91
2022-12-31T16:03:48.234Z,4.93
2022-12-31T16:06:15.713Z,4.95
2022-12-31T16:08:47.983Z,4.94
2022-12-31T16:11:14.809Z,4.97
2022-12-31T16:13:44.310Z,4.99
2022-12-31T16:16:31.629Z,5.01
2022-12-31T16:19:00.173Z,5.02
2022-12-31T16:21:33.630Z,5.01
2022-12-31T16:24:30.612Z,4.95
2022-12-31T16:27:02.327Z,4.91
2022-12-31T16:29:30.842Z,4.89
2022-12-31T16:31:57.508Z,4.89
2022-12-31T16:34:26.657Z,4.90
2022-12-31T16:37:05.333Z,4.92
2022-12-31T16:39:39.156Z,4.93
2022-12-31T16:42:16.903Z,4.96
2022-12-31T16:44:43.645Z,5.00
2022-12-31T16:47:18.147Z,5.02
2022-12-31T16:49:45.582Z,5.04
2022-12-31T16:52:32.422Z,5.06
2022-12-31T16:54:59.184Z,5.08
2022-12-31T16:57:27.345Z,5.12
2022-12-31T17:00:02.454Z,5.15
2022-12-31T17:02:39.952Z,5.18
2022-12-31T17:05:21.661Z,5.22
2022-12-31T17:07:48.422Z,5.25
2022-12-31T17:10:23.375Z,5.27
2022-12-31T17:13:27.642Z,5.29
2022-12-31T17:15:44.804Z,5.32
2022-12-31T17:18:17.537Z,5.36
2022-12-31T17:20:44.232Z,5.47
2022-12-31T17:23:11.786Z,5.58
2022-12-31T17:25:38.596Z,5.72
2022-12-31T17:28:07.229Z,5.87
2022-12-31T17:30:34.742Z,5.96
2022-12-31T17:33:05.404Z,6.02
2022-12-31T17:35:36.876Z,6.04
2022-12-31T17:38:21.312Z,6.02
2022-12-31T17:41:08.237Z,6.00
2022-12-31T17:43:38.419Z,5.97
2022-12-31T17:46:16.094Z,5.97
2022-12-31T17:48:44.068Z,5.99
2022-12-31T17:51:10.936Z,6.00
2022-12-31T17:53:38.197Z,6.01
2022-12-31T17:56:07.408Z,5.99
2022-12-31T17:58:51.408Z,5.94
2022-12-31T18:01:19.105Z,5.91
2022-12-31T18:03:46.031Z,5.85
2022-12-31T18:06:16.479Z,5.81
2022-12-31T18:08:43.699Z,5.84
2022-12-31T18:11:14.514Z,5.88
2022-12-31T18:13:41.285Z,5.89
2022-12-31T18:16:08.152Z,5.90
2022-12-31T18:18:37.345Z,5.91
2022-12-31T18:21:05.425Z,5.89
2022-12-31T18:23:42.885Z,5.89
2022-12-31T18:26:13.055Z,5.90
2022-12-31T18:28:39.760Z,5.90
2022-12-31T18:31:06.532Z,5.91
2022-12-31T18:33:33.420Z,5.92
2022-12-31T18:36:09.218Z,5.94
2022-12-31T18:38:36.500Z,5.95
2022-12-31T18:41:03.725Z,5.97
2022-12-31T18:43:30.379Z,6.03
2022-12-31T18:45:57.176Z,6.11
2022-12-31T18:48:24.002Z,6.17
2022-12-31T18:50:50.710Z,6.20
2022-12-31T18:53:19.472Z,6.19
2022-12-31T18:55:53.674Z,6.19
2022-12-31T18:58:20.668Z,6.19
2022-12-31T19:00:48.122Z,6.19
2022-12-31T19:03:20.129Z,6.23
2022-12-31T19:05:49.863Z,6.29
2022-12-31T19:08:20.552Z,6.33
2022-12-31T19:10:47.959Z,6.35
2022-12-31T19:13:15.663Z,6.36
2022-12-31T19:15:44.376Z,6.35
2022-12-31T19:18:11.715Z,6.31
2022-12-31T19:20:39.069Z,6.28
2022-12-31T19:23:05.899Z,6.19
2022-12-31T19:25:34.354Z,6.12
2022-12-31T19:28:02.238Z,6.09
2022-12-31T19:30:31.040Z,6.07
2022-12-31T19:32:58.059Z,6.05
2022-12-31T19:35:25.021Z,6.03
2022-12-31T19:37:52.549Z,6.01
2022-12-31T19:40:27.339Z,5.97
2022-12-31T19:42:55.090Z,5.95
2022-12-31T19:45:26.410Z,5.94
2022-12-31T19:47:53.528Z,5.99
2022-12-31T19:50:22.256Z,6.05
2022-12-31T19:52:50.102Z,6.12
2022-12-31T19:55:19.410Z,6.17
2022-12-31T19:57:46.822Z,6.23
2022-12-31T20:00:15.046Z,6.26
2022-12-31T20:02:42.351Z,6.25
2022-12-31T20:05:09.992Z,6.26
2022-12-31T20:07:36.837Z,6.31
2022-12-31T20:10:04.934Z,6.36
2022-12-31T20:12:32.031Z,6.42
2022-12-31T20:14:58.707Z,6.47
2022-12-31T20:17:25.498Z,6.49
2022-12-31T20:19:52.236Z,6.48
2022-12-31T20:22:19.082Z,6.48
2022-12-31T20:24:45.832Z,6.48
2022-12-31T20:27:18.309Z,6.49
2022-12-31T20:29:45.518Z,6.51
2022-12-31T20:32:12.193Z,6.54
2022-12-31T20:34:38.916Z,6.57
2022-12-31T20:37:05.547Z,6.60
2022-12-31T20:39:32.238Z,6.61
2022-12-31T20:41:58.972Z,6.63
2022-12-31T20:44:25.663Z,6.61
2022-12-31T20:46:52.390Z,6.60
2022-12-31T20:49:37.088Z,6.63
2022-12-31T20:52:05.940Z,6.67
2022-12-31T20:54:32.774Z,6.73
2022-12-31T20:57:00.280Z,6.80
2022-12-31T20:59:27.770Z,6.84
2022-12-31T21:02:29.761Z,6.85
2022-12-31T21:04:41.395Z,6.80
2022-12-31T21:07:08.272Z,6.77
2022-12-31T21:09:35.014Z,6.77
2022-12-31T21:12:20.549Z,6.78
2022-12-31T21:14:47.244Z,6.83
2022-12-31T21:17:13.979Z,6.85
2022-12-31T21:19:40.808Z,6.88
2022-12-31T21:22:07.525Z,6.90
2022-12-31T21:24:34.357Z,6.88
2022-12-31T21:27:00.999Z,6.86
2022-12-31T21:29:32.642Z,6.84
2022-12-31T21:32:01.215Z,6.78
2022-12-31T21:34:27.905Z,6.75
2022-12-31T21:36:54.551Z,6.73
2022-12-31T21:39:21.384Z,6.75
2022-12-31T21:41:50.973Z,6.79
2022-12-31T21:44:20.891Z,6.82
2022-12-31T21:47:35.004Z,6.86
2022-12-31T21:50:03.204Z,6.85
2022-12-31T21:52:35.206Z,6.83
2022-12-31T21:55:21.678Z,6.86
2022-12-31T21:58:24.082Z,6.92
2022-12-31T22:00:54.879Z,6.96
2022-12-31T22:03:24.345Z,6.98
2022-12-31T22:05:52.072Z,7.00
2022-12-31T22:08:19.922Z,6.99
2022-12-31T22:10:52.088Z,6.97
2022-12-31T22:13:19.645Z,6.96
2022-12-31T22:15:47.166Z,6.97
2022-12-31T22:18:14.718Z,7.00
2022-12-31T22:20:41.510Z,7.04
2022-12-31T22:23:08.172Z,7.05
2022-12-31T22:25:35.509Z,7.07
2022-12-31T22:28:36.842Z,7.07
2022-12-31T22:30:49.713Z,7.06
2022-12-31T22:33:16.560Z,7.06
2022-12-31T22:35:43.194Z,7.05
2022-12-31T22:38:12.121Z,7.06
2022-12-31T22:40:39.409Z,7.10
2022-12-31T22:43:06.141Z,7.17
2022-12-31T22:45:32.899Z,7.24
2022-12-31T22:47:59.564Z,7.30
2022-12-31T22:50:26.208Z,7.33
2022-12-31T22:52:52.953Z,7.33
2022-12-31T22:55:19.592Z,7.31
2022-12-31T22:57:46.243Z,7.32
2022-12-31T23:00:13.795Z,7.37
2022-12-31T23:02:42.221Z,7.44
2022-12-31T23:05:14.921Z,7.50
2022-12-31T23:07:42.624Z,7.52
2022-12-31T23:10:28.660Z,7.53
2022-12-31T23:12:55.419Z,7.56
2022-12-31T23:15:40.743Z,7.57
2022-12-31T23:18:26.253Z,7.54
2022-12-31T23:21:12.038Z,7.56
2022-12-31T23:23:38.775Z,7.61
2022-12-31T23:26:07.053Z,7.66
2022-12-31T23:28:33.792Z,7.71
2022-12-31T23:31:05.997Z,7.73
2022-12-31T23:33:32.691Z,7.75
2022-12-31T23:36:06.172Z,7.77
2022-12-31T23:38:33.479Z,7.74
2022-12-31T23:41:00.659Z,7.70
2022-12-31T23:43:28.407Z,7.72
2022-12-31T23:45:55.260Z,7.77
2022-12-31T23:48:21.962Z,7.81
2022-12-31T23:50:53.569Z,7.84
2022-12-31T23:53:24.454Z,7.88
2022-12-31T23:55:51.906Z,7.90
2022-12-31T23:58:18.550Z,7.91
